sensor_id;sensor_type;location;lat;lon;timestamp;P1;durP1;ratioP1;P2;durP2;ratioP2
29774;SDS011;16676;51.202;6.774;2023-12-07T00:02:02;32.45;;;17.55;;
29774;SDS011;16676;51.202;6.774;2023-12-07T00:06:04;37.55;;;18.30;;
29774;SDS011;16676;51.202;6.774;2023-12-07T00:10:07;34.80;;;17.83;;
29774;SDS011;16676;51.202;6.774;2023-12-07T00:14:09;36.85;;;18.13;;
29774;SDS011;16676;51.202;6.774;2023-12-07T00:18:13;34.85;;;17.17;;
29774;SDS011;16676;51.202;6.774;2023-12-07T00:22:15;34.80;;;17.20;;
29774;SDS011;16676;51.202;6.774;2023-12-07T00:26:17;33.85;;;17.17;;
29774;SDS011;16676;51.202;6.774;2023-12-07T00:30:19;36.10;;;17.38;;
29774;SDS011;16676;51.202;6.774;2023-12-07T00:34:22;31.90;;;16.95;;
29774;SDS011;16676;51.202;6.774;2023-12-07T00:38:24;33.60;;;17.20;;
29774;SDS011;16676;51.202;6.774;2023-12-07T00:42:26;34.97;;;17.40;;
29774;SDS011;16676;51.202;6.774;2023-12-07T00:46:28;33.35;;;16.48;;
29774;SDS011;16676;51.202;6.774;2023-12-07T00:50:31;33.25;;;16.73;;
29774;SDS011;16676;51.202;6.774;2023-12-07T00:54:33;34.25;;;17.02;;
29774;SDS011;16676;51.202;6.774;2023-12-07T00:58:35;31.35;;;16.42;;
29774;SDS011;16676;51.202;6.774;2023-12-07T01:02:38;28.13;;;15.63;;
29774;SDS011;16676;51.202;6.774;2023-12-07T01:06:41;35.63;;;16.48;;
29774;SDS011;16676;51.202;6.774;2023-12-07T01:10:44;31.70;;;16.08;;
29774;SDS011;16676;51.202;6.774;2023-12-07T01:14:45;31.98;;;16.40;;
29774;SDS011;16676;51.202;6.774;2023-12-07T01:18:47;26.83;;;14.93;;
29774;SDS011;16676;51.202;6.774;2023-12-07T01:22:50;30.67;;;15.30;;
29774;SDS011;16676;51.202;6.774;2023-12-07T01:26:52;26.73;;;14.80;;
29774;SDS011;16676;51.202;6.774;2023-12-07T01:30:54;29.02;;;14.45;;
29774;SDS011;16676;51.202;6.774;2023-12-07T01:34:56;31.33;;;15.60;;
29774;SDS011;16676;51.202;6.774;2023-12-07T01:38:59;27.60;;;14.73;;
29774;SDS011;16676;51.202;6.774;2023-12-07T01:43:01;26.73;;;14.13;;
29774;SDS011;16676;51.202;6.774;2023-12-07T01:47:03;25.77;;;13.27;;
29774;SDS011;16676;51.202;6.774;2023-12-07T01:51:08;23.55;;;13.07;;
29774;SDS011;16676;51.202;6.774;2023-12-07T01:55:12;23.25;;;13.00;;
29774;SDS011;16676;51.202;6.774;2023-12-07T01:59:16;27.23;;;14.15;;
29774;SDS011;16676;51.202;6.774;2023-12-07T02:03:18;27.73;;;14.23;;
29774;SDS011;16676;51.202;6.774;2023-12-07T02:07:20;24.98;;;14.55;;
29774;SDS011;16676;51.202;6.774;2023-12-07T02:11:25;25.05;;;12.45;;
29774;SDS011;16676;51.202;6.774;2023-12-07T02:15:27;26.65;;;13.30;;
29774;SDS011;16676;51.202;6.774;2023-12-07T02:19:39;24.80;;;13.20;;
29774;SDS011;16676;51.202;6.774;2023-12-07T02:23:50;21.55;;;12.50;;
29774;SDS011;16676;51.202;6.774;2023-12-07T02:27:55;24.75;;;12.82;;
29774;SDS011;16676;51.202;6.774;2023-12-07T02:31:57;24.45;;;12.18;;
29774;SDS011;16676;51.202;6.774;2023-12-07T02:35:59;22.50;;;12.02;;
29774;SDS011;16676;51.202;6.774;2023-12-07T02:40:01;24.13;;;12.77;;
29774;SDS011;16676;51.202;6.774;2023-12-07T02:44:06;22.25;;;12.50;;
29774;SDS011;16676;51.202;6.774;2023-12-07T02:48:08;23.92;;;12.43;;
29774;SDS011;16676;51.202;6.774;2023-12-07T02:52:10;21.15;;;11.63;;
29774;SDS011;16676;51.202;6.774;2023-12-07T02:56:12;22.73;;;12.10;;
29774;SDS011;16676;51.202;6.774;2023-12-07T03:00:16;21.67;;;12.35;;
29774;SDS011;16676;51.202;6.774;2023-12-07T03:04:18;21.63;;;11.88;;
29774;SDS011;16676;51.202;6.774;2023-12-07T03:08:20;21.73;;;11.02;;
29774;SDS011;16676;51.202;6.774;2023-12-07T03:12:22;22.90;;;11.80;;
29774;SDS011;16676;51.202;6.774;2023-12-07T03:16:25;19.30;;;11.30;;
29774;SDS011;16676;51.202;6.774;2023-12-07T03:20:27;22.90;;;12.32;;
29774;SDS011;16676;51.202;6.774;2023-12-07T03:24:29;20.63;;;11.20;;
29774;SDS011;16676;51.202;6.774;2023-12-07T03:28:31;18.80;;;10.70;;
29774;SDS011;16676;51.202;6.774;2023-12-07T03:32:34;20.17;;;10.70;;
29774;SDS011;16676;51.202;6.774;2023-12-07T03:36:36;18.75;;;10.90;;
29774;SDS011;16676;51.202;6.774;2023-12-07T03:40:39;20.70;;;10.02;;
29774;SDS011;16676;51.202;6.774;2023-12-07T03:44:41;18.35;;;10.13;;
29774;SDS011;16676;51.202;6.774;2023-12-07T03:48:45;18.50;;;10.32;;
29774;SDS011;16676;51.202;6.774;2023-12-07T03:52:47;16.77;;;9.68;;
29774;SDS011;16676;51.202;6.774;2023-12-07T03:56:49;18.17;;;10.38;;
29774;SDS011;16676;51.202;6.774;2023-12-07T04:00:51;20.02;;;10.73;;
29774;SDS011;16676;51.202;6.774;2023-12-07T04:04:54;19.42;;;10.48;;
29774;SDS011;16676;51.202;6.774;2023-12-07T04:08:56;17.33;;;9.63;;
29774;SDS011;16676;51.202;6.774;2023-12-07T04:12:58;19.13;;;10.13;;
29774;SDS011;16676;51.202;6.774;2023-12-07T04:17:00;18.55;;;10.43;;
29774;SDS011;16676;51.202;6.774;2023-12-07T04:21:03;19.65;;;10.18;;
29774;SDS011;16676;51.202;6.774;2023-12-07T04:25:06;18.10;;;10.43;;
29774;SDS011;16676;51.202;6.774;2023-12-07T04:29:09;17.42;;;9.68;;
29774;SDS011;16676;51.202;6.774;2023-12-07T04:33:11;18.33;;;10.57;;
29774;SDS011;16676;51.202;6.774;2023-12-07T04:37:14;18.98;;;10.50;;
29774;SDS011;16676;51.202;6.774;2023-12-07T04:41:17;17.77;;;10.30;;
29774;SDS011;16676;51.202;6.774;2023-12-07T04:45:19;15.80;;;9.60;;
29774;SDS011;16676;51.202;6.774;2023-12-07T04:49:21;17.27;;;9.45;;
29774;SDS011;16676;51.202;6.774;2023-12-07T04:53:24;17.85;;;10.27;;
29774;SDS011;16676;51.202;6.774;2023-12-07T04:57:26;15.88;;;9.52;;
29774;SDS011;16676;51.202;6.774;2023-12-07T05:01:28;15.35;;;9.45;;
29774;SDS011;16676;51.202;6.774;2023-12-07T05:05:30;17.63;;;10.02;;
29774;SDS011;16676;51.202;6.774;2023-12-07T05:09:33;16.83;;;9.27;;
29774;SDS011;16676;51.202;6.774;2023-12-07T05:13:35;16.08;;;9.13;;
29774;SDS011;16676;51.202;6.774;2023-12-07T05:17:37;15.90;;;9.13;;
29774;SDS011;16676;51.202;6.774;2023-12-07T05:21:38;15.60;;;8.73;;
29774;SDS011;16676;51.202;6.774;2023-12-07T05:25:42;16.17;;;9.10;;
29774;SDS011;16676;51.202;6.774;2023-12-07T05:29:45;13.00;;;7.85;;
29774;SDS011;16676;51.202;6.774;2023-12-07T05:33:47;15.55;;;8.85;;
29774;SDS011;16676;51.202;6.774;2023-12-07T05:37:49;14.70;;;8.82;;
29774;SDS011;16676;51.202;6.774;2023-12-07T05:41:52;16.58;;;9.15;;
29774;SDS011;16676;51.202;6.774;2023-12-07T05:45:54;14.95;;;8.57;;
29774;SDS011;16676;51.202;6.774;2023-12-07T05:49:56;13.38;;;7.97;;
29774;SDS011;16676;51.202;6.774;2023-12-07T05:54:00;12.65;;;7.80;;
29774;SDS011;16676;51.202;6.774;2023-12-07T05:58:04;14.40;;;8.07;;
29774;SDS011;16676;51.202;6.774;2023-12-07T06:02:06;15.43;;;8.40;;
29774;SDS011;16676;51.202;6.774;2023-12-07T06:06:08;13.45;;;8.00;;
29774;SDS011;16676;51.202;6.774;2023-12-07T06:10:11;11.88;;;7.60;;
29774;SDS011;16676;51.202;6.774;2023-12-07T06:14:14;15.95;;;8.00;;
29774;SDS011;16676;51.202;6.774;2023-12-07T06:18:16;13.35;;;7.32;;
29774;SDS011;16676;51.202;6.774;2023-12-07T06:22:18;17.23;;;8.73;;
29774;SDS011;16676;51.202;6.774;2023-12-07T06:26:20;13.68;;;8.20;;
29774;SDS011;16676;51.202;6.774;2023-12-07T06:30:24;11.73;;;7.65;;
29774;SDS011;16676;51.202;6.774;2023-12-07T06:34:26;13.85;;;7.57;;
29774;SDS011;16676;51.202;6.774;2023-12-07T06:38:29;11.85;;;7.00;;
29774;SDS011;16676;51.202;6.774;2023-12-07T06:42:31;12.63;;;7.47;;
29774;SDS011;16676;51.202;6.774;2023-12-07T06:46:34;12.27;;;7.03;;
29774;SDS011;16676;51.202;6.774;2023-12-07T06:50:36;15.10;;;7.45;;
29774;SDS011;16676;51.202;6.774;2023-12-07T06:54:38;18.52;;;7.90;;
29774;SDS011;16676;51.202;6.774;2023-12-07T06:58:40;17.00;;;7.47;;
29774;SDS011;16676;51.202;6.774;2023-12-07T07:02:43;15.88;;;7.07;;
29774;SDS011;16676;51.202;6.774;2023-12-07T07:06:45;19.23;;;11.68;;
29774;SDS011;16676;51.202;6.774;2023-12-07T07:10:47;18.70;;;11.48;;
29774;SDS011;16676;51.202;6.774;2023-12-07T07:14:49;16.45;;;10.05;;
29774;SDS011;16676;51.202;6.774;2023-12-07T07:18:52;13.05;;;9.05;;
29774;SDS011;16676;51.202;6.774;2023-12-07T07:22:54;16.42;;;7.68;;
29774;SDS011;16676;51.202;6.774;2023-12-07T07:26:56;17.42;;;7.68;;
29774;SDS011;16676;51.202;6.774;2023-12-07T07:30:58;17.23;;;7.38;;
29774;SDS011;16676;51.202;6.774;2023-12-07T07:35:02;10.90;;;6.38;;
29774;SDS011;16676;51.202;6.774;2023-12-07T07:39:04;15.00;;;6.32;;
29774;SDS011;16676;51.202;6.774;2023-12-07T07:43:07;10.43;;;6.00;;
29774;SDS011;16676;51.202;6.774;2023-12-07T07:47:09;9.48;;;5.43;;
29774;SDS011;16676;51.202;6.774;2023-12-07T07:51:13;12.15;;;5.90;;
29774;SDS011;16676;51.202;6.774;2023-12-07T07:55:15;11.70;;;5.13;;
29774;SDS011;16676;51.202;6.774;2023-12-07T07:59:18;10.05;;;5.50;;
29774;SDS011;16676;51.202;6.774;2023-12-07T08:03:20;13.30;;;5.57;;
29774;SDS011;16676;51.202;6.774;2023-12-07T08:07:23;8.70;;;5.35;;
29774;SDS011;16676;51.202;6.774;2023-12-07T08:11:25;9.93;;;5.72;;
29774;SDS011;16676;51.202;6.774;2023-12-07T08:15:27;8.90;;;5.18;;
29774;SDS011;16676;51.202;6.774;2023-12-07T08:19:29;6.45;;;4.72;;
29774;SDS011;16676;51.202;6.774;2023-12-07T08:23:33;7.75;;;5.00;;
29774;SDS011;16676;51.202;6.774;2023-12-07T08:27:36;8.80;;;4.90;;
29774;SDS011;16676;51.202;6.774;2023-12-07T08:31:39;9.32;;;5.00;;
29774;SDS011;16676;51.202;6.774;2023-12-07T08:35:41;9.38;;;5.10;;
29774;SDS011;16676;51.202;6.774;2023-12-07T08:39:45;6.07;;;4.25;;
29774;SDS011;16676;51.202;6.774;2023-12-07T08:43:47;7.75;;;4.20;;
29774;SDS011;16676;51.202;6.774;2023-12-07T08:47:49;11.40;;;4.55;;
29774;SDS011;16676;51.202;6.774;2023-12-07T08:51:51;4.47;;;3.50;;
29774;SDS011;16676;51.202;6.774;2023-12-07T08:55:54;7.22;;;4.53;;
29774;SDS011;16676;51.202;6.774;2023-12-07T08:59:56;6.13;;;3.97;;
29774;SDS011;16676;51.202;6.774;2023-12-07T09:03:59;5.70;;;3.88;;
29774;SDS011;16676;51.202;6.774;2023-12-07T09:08:00;6.63;;;4.15;;
29774;SDS011;16676;51.202;6.774;2023-12-07T09:12:04;6.00;;;3.80;;
29774;SDS011;16676;51.202;6.774;2023-12-07T09:16:07;4.78;;;3.60;;
29774;SDS011;16676;51.202;6.774;2023-12-07T09:20:09;7.60;;;3.80;;
29774;SDS011;16676;51.202;6.774;2023-12-07T09:24:12;7.78;;;4.00;;
29774;SDS011;16676;51.202;6.774;2023-12-07T09:28:16;8.30;;;3.75;;
29774;SDS011;16676;51.202;6.774;2023-12-07T09:32:18;4.80;;;3.50;;
29774;SDS011;16676;51.202;6.774;2023-12-07T09:36:20;5.90;;;3.70;;
29774;SDS011;16676;51.202;6.774;2023-12-07T09:40:22;5.57;;;3.40;;
29774;SDS011;16676;51.202;6.774;2023-12-07T09:44:27;4.05;;;3.13;;
29774;SDS011;16676;51.202;6.774;2023-12-07T09:48:29;5.82;;;3.05;;
29774;SDS011;16676;51.202;6.774;2023-12-07T09:52:31;5.18;;;3.05;;
29774;SDS011;16676;51.202;6.774;2023-12-07T09:56:33;4.90;;;3.05;;
29774;SDS011;16676;51.202;6.774;2023-12-07T10:00:36;5.28;;;3.05;;
29774;SDS011;16676;51.202;6.774;2023-12-07T10:04:38;4.60;;;2.88;;
29774;SDS011;16676;51.202;6.774;2023-12-07T10:08:41;5.55;;;3.38;;
29774;SDS011;16676;51.202;6.774;2023-12-07T10:12:47;5.38;;;2.72;;
29774;SDS011;16676;51.202;6.774;2023-12-07T10:16:55;3.90;;;2.60;;
29774;SDS011;16676;51.202;6.774;2023-12-07T10:20:57;4.45;;;2.78;;
29774;SDS011;16676;51.202;6.774;2023-12-07T10:24:59;5.25;;;3.15;;
29774;SDS011;16676;51.202;6.774;2023-12-07T10:29:01;18.38;;;2.67;;
29774;SDS011;16676;51.202;6.774;2023-12-07T10:33:05;5.13;;;2.97;;
29774;SDS011;16676;51.202;6.774;2023-12-07T10:37:07;4.90;;;2.95;;
29774;SDS011;16676;51.202;6.774;2023-12-07T10:41:09;4.32;;;2.80;;
29774;SDS011;16676;51.202;6.774;2023-12-07T10:45:14;5.95;;;3.03;;
29774;SDS011;16676;51.202;6.774;2023-12-07T10:49:19;3.50;;;2.28;;
29774;SDS011;16676;51.202;6.774;2023-12-07T10:53:26;6.03;;;2.63;;
29774;SDS011;16676;51.202;6.774;2023-12-07T10:57:30;5.85;;;2.58;;
29774;SDS011;16676;51.202;6.774;2023-12-07T11:01:35;4.22;;;2.35;;
29774;SDS011;16676;51.202;6.774;2023-12-07T11:05:40;3.92;;;2.17;;
29774;SDS011;16676;51.202;6.774;2023-12-07T11:09:44;3.88;;;2.20;;
29774;SDS011;16676;51.202;6.774;2023-12-07T11:13:49;3.53;;;2.53;;
29774;SDS011;16676;51.202;6.774;2023-12-07T11:17:55;3.25;;;2.25;;
29774;SDS011;16676;51.202;6.774;2023-12-07T11:21:59;4.13;;;3.03;;
29774;SDS011;16676;51.202;6.774;2023-12-07T11:26:01;4.50;;;2.47;;
29774;SDS011;16676;51.202;6.774;2023-12-07T11:30:04;7.47;;;2.20;;
29774;SDS011;16676;51.202;6.774;2023-12-07T11:34:08;4.28;;;2.42;;
29774;SDS011;16676;51.202;6.774;2023-12-07T11:38:15;3.67;;;2.28;;
29774;SDS011;16676;51.202;6.774;2023-12-07T11:42:19;4.10;;;2.28;;
29774;SDS011;16676;51.202;6.774;2023-12-07T11:46:29;3.85;;;2.40;;
29774;SDS011;16676;51.202;6.774;2023-12-07T11:50:31;4.32;;;2.50;;
29774;SDS011;16676;51.202;6.774;2023-12-07T11:54:33;3.60;;;2.42;;
29774;SDS011;16676;51.202;6.774;2023-12-07T11:58:35;3.75;;;2.40;;
29774;SDS011;16676;51.202;6.774;2023-12-07T12:02:39;5.47;;;2.05;;
29774;SDS011;16676;51.202;6.774;2023-12-07T12:06:42;2.92;;;2.10;;
29774;SDS011;16676;51.202;6.774;2023-12-07T12:10:45;2.55;;;2.20;;
29774;SDS011;16676;51.202;6.774;2023-12-07T12:14:47;3.78;;;2.30;;
29774;SDS011;16676;51.202;6.774;2023-12-07T12:18:50;3.63;;;2.05;;
29774;SDS011;16676;51.202;6.774;2023-12-07T12:22:52;7.95;;;5.60;;
29774;SDS011;16676;51.202;6.774;2023-12-07T12:26:55;12.90;;;7.03;;
29774;SDS011;16676;51.202;6.774;2023-12-07T12:30:58;11.05;;;4.80;;
29774;SDS011;16676;51.202;6.774;2023-12-07T12:35:02;8.45;;;4.05;;
29774;SDS011;16676;51.202;6.774;2023-12-07T12:39:05;7.68;;;3.88;;
29774;SDS011;16676;51.202;6.774;2023-12-07T12:43:08;7.30;;;3.60;;
29774;SDS011;16676;51.202;6.774;2023-12-07T12:47:11;7.85;;;3.13;;
29774;SDS011;16676;51.202;6.774;2023-12-07T12:51:14;7.20;;;3.28;;
29774;SDS011;16676;51.202;6.774;2023-12-07T12:55:17;6.03;;;2.83;;
29774;SDS011;16676;51.202;6.774;2023-12-07T12:59:19;5.30;;;2.70;;
29774;SDS011;16676;51.202;6.774;2023-12-07T13:03:22;7.38;;;3.00;;
29774;SDS011;16676;51.202;6.774;2023-12-07T13:07:25;4.30;;;2.17;;
29774;SDS011;16676;51.202;6.774;2023-12-07T13:11:27;5.90;;;2.50;;
29774;SDS011;16676;51.202;6.774;2023-12-07T13:15:29;3.25;;;2.53;;
29774;SDS011;16676;51.202;6.774;2023-12-07T13:19:31;5.18;;;2.55;;
29774;SDS011;16676;51.202;6.774;2023-12-07T13:23:35;4.68;;;2.33;;
29774;SDS011;16676;51.202;6.774;2023-12-07T13:27:37;3.50;;;2.03;;
29774;SDS011;16676;51.202;6.774;2023-12-07T13:31:39;4.18;;;1.80;;
29774;SDS011;16676;51.202;6.774;2023-12-07T13:35:41;3.58;;;2.30;;
29774;SDS011;16676;51.202;6.774;2023-12-07T13:39:44;3.88;;;2.25;;
29774;SDS011;16676;51.202;6.774;2023-12-07T13:43:51;4.10;;;2.33;;
29774;SDS011;16676;51.202;6.774;2023-12-07T13:47:53;4.05;;;1.90;;
29774;SDS011;16676;51.202;6.774;2023-12-07T13:51:55;3.80;;;2.08;;
29774;SDS011;16676;51.202;6.774;2023-12-07T13:55:58;3.90;;;1.90;;
29774;SDS011;16676;51.202;6.774;2023-12-07T14:00:00;2.53;;;2.00;;
29774;SDS011;16676;51.202;6.774;2023-12-07T14:04:02;3.20;;;2.00;;
29774;SDS011;16676;51.202;6.774;2023-12-07T14:08:05;3.70;;;2.03;;
29774;SDS011;16676;51.202;6.774;2023-12-07T14:12:10;3.55;;;2.00;;
29774;SDS011;16676;51.202;6.774;2023-12-07T14:16:13;2.33;;;1.58;;
29774;SDS011;16676;51.202;6.774;2023-12-07T14:20:15;3.90;;;1.73;;
29774;SDS011;16676;51.202;6.774;2023-12-07T14:24:17;3.88;;;2.10;;
29774;SDS011;16676;51.202;6.774;2023-12-07T14:28:20;4.30;;;1.77;;
29774;SDS011;16676;51.202;6.774;2023-12-07T14:32:22;3.85;;;2.10;;
29774;SDS011;16676;51.202;6.774;2023-12-07T14:36:24;3.33;;;1.95;;
29774;SDS011;16676;51.202;6.774;2023-12-07T14:40:26;2.92;;;1.95;;
29774;SDS011;16676;51.202;6.774;2023-12-07T14:44:30;3.13;;;1.90;;
29774;SDS011;16676;51.202;6.774;2023-12-07T14:48:32;2.72;;;1.67;;
29774;SDS011;16676;51.202;6.774;2023-12-07T14:52:34;3.30;;;1.52;;
29774;SDS011;16676;51.202;6.774;2023-12-07T14:56:36;5.18;;;1.88;;
29774;SDS011;16676;51.202;6.774;2023-12-07T15:00:40;1.80;;;1.50;;
29774;SDS011;16676;51.202;6.774;2023-12-07T15:04:43;2.75;;;1.70;;
29774;SDS011;16676;51.202;6.774;2023-12-07T15:08:45;2.65;;;1.88;;
29774;SDS011;16676;51.202;6.774;2023-12-07T15:12:47;4.15;;;1.50;;
29774;SDS011;16676;51.202;6.774;2023-12-07T15:16:50;4.50;;;1.38;;
29774;SDS011;16676;51.202;6.774;2023-12-07T15:20:54;2.50;;;1.30;;
29774;SDS011;16676;51.202;6.774;2023-12-07T15:24:56;2.58;;;1.65;;
29774;SDS011;16676;51.202;6.774;2023-12-07T15:28:58;4.88;;;1.50;;
29774;SDS011;16676;51.202;6.774;2023-12-07T15:33:01;4.15;;;1.70;;
29774;SDS011;16676;51.202;6.774;2023-12-07T15:37:04;3.88;;;1.40;;
29774;SDS011;16676;51.202;6.774;2023-12-07T15:41:06;5.57;;;1.50;;
29774;SDS011;16676;51.202;6.774;2023-12-07T15:45:09;2.10;;;1.40;;
29774;SDS011;16676;51.202;6.774;2023-12-07T15:49:12;3.67;;;1.65;;
29774;SDS011;16676;51.202;6.774;2023-12-07T15:53:14;5.80;;;1.50;;
29774;SDS011;16676;51.202;6.774;2023-12-07T15:57:18;5.55;;;2.25;;
29774;SDS011;16676;51.202;6.774;2023-12-07T16:01:20;3.30;;;2.47;;
29774;SDS011;16676;51.202;6.774;2023-12-07T16:05:23;8.18;;;2.63;;
29774;SDS011;16676;51.202;6.774;2023-12-07T16:09:26;7.78;;;3.00;;
29774;SDS011;16676;51.202;6.774;2023-12-07T16:13:28;7.78;;;3.65;;
29774;SDS011;16676;51.202;6.774;2023-12-07T16:17:30;9.25;;;3.67;;
29774;SDS011;16676;51.202;6.774;2023-12-07T16:21:33;9.05;;;4.40;;
29774;SDS011;16676;51.202;6.774;2023-12-07T16:25:37;7.45;;;4.50;;
29774;SDS011;16676;51.202;6.774;2023-12-07T16:29:39;8.70;;;4.72;;
29774;SDS011;16676;51.202;6.774;2023-12-07T16:33:41;9.52;;;4.75;;
29774;SDS011;16676;51.202;6.774;2023-12-07T16:37:45;13.05;;;4.60;;
29774;SDS011;16676;51.202;6.774;2023-12-07T16:41:47;7.88;;;4.93;;
29774;SDS011;16676;51.202;6.774;2023-12-07T16:45:49;11.80;;;5.00;;
29774;SDS011;16676;51.202;6.774;2023-12-07T16:49:51;8.32;;;5.25;;
29774;SDS011;16676;51.202;6.774;2023-12-07T16:53:54;8.35;;;4.30;;
29774;SDS011;16676;51.202;6.774;2023-12-07T16:57:56;5.38;;;3.75;;
29774;SDS011;16676;51.202;6.774;2023-12-07T17:01:59;5.53;;;3.47;;
29774;SDS011;16676;51.202;6.774;2023-12-07T17:06:03;6.00;;;3.00;;
29774;SDS011;16676;51.202;6.774;2023-12-07T17:10:08;5.43;;;2.78;;
29774;SDS011;16676;51.202;6.774;2023-12-07T17:14:10;4.25;;;2.60;;
29774;SDS011;16676;51.202;6.774;2023-12-07T17:18:12;6.47;;;2.90;;
29774;SDS011;16676;51.202;6.774;2023-12-07T17:22:14;4.07;;;2.40;;
29774;SDS011;16676;51.202;6.774;2023-12-07T17:26:17;3.40;;;2.25;;
29774;SDS011;16676;51.202;6.774;2023-12-07T17:30:19;2.53;;;2.13;;
29774;SDS011;16676;51.202;6.774;2023-12-07T17:34:21;3.67;;;1.95;;
29774;SDS011;16676;51.202;6.774;2023-12-07T17:38:24;4.07;;;2.15;;
29774;SDS011;16676;51.202;6.774;2023-12-07T17:42:27;3.08;;;1.80;;
29774;SDS011;16676;51.202;6.774;2023-12-07T17:46:30;3.95;;;1.63;;
29774;SDS011;16676;51.202;6.774;2023-12-07T17:50:31;2.95;;;1.85;;
29774;SDS011;16676;51.202;6.774;2023-12-07T17:54:33;2.90;;;1.70;;
29774;SDS011;16676;51.202;6.774;2023-12-07T17:58:37;2.92;;;2.03;;
29774;SDS011;16676;51.202;6.774;2023-12-07T18:02:39;4.13;;;2.15;;
29774;SDS011;16676;51.202;6.774;2023-12-07T18:06:41;37.63;;;13.25;;
29774;SDS011;16676;51.202;6.774;2023-12-07T18:10:43;42.50;;;14.63;;
29774;SDS011;16676;51.202;6.774;2023-12-07T18:14:47;49.00;;;15.60;;
29774;SDS011;16676;51.202;6.774;2023-12-07T18:18:49;48.80;;;16.35;;
29774;SDS011;16676;51.202;6.774;2023-12-07T18:22:50;45.60;;;15.70;;
29774;SDS011;16676;51.202;6.774;2023-12-07T18:26:52;54.38;;;15.18;;
29774;SDS011;16676;51.202;6.774;2023-12-07T18:30:55;47.92;;;14.65;;
29774;SDS011;16676;51.202;6.774;2023-12-07T18:34:57;49.47;;;13.98;;
29774;SDS011;16676;51.202;6.774;2023-12-07T18:38:59;42.63;;;13.68;;
29774;SDS011;16676;51.202;6.774;2023-12-07T18:43:02;36.70;;;13.18;;
29774;SDS011;16676;51.202;6.774;2023-12-07T18:47:05;50.40;;;15.82;;
29774;SDS011;16676;51.202;6.774;2023-12-07T18:51:08;51.65;;;23.05;;
29774;SDS011;16676;51.202;6.774;2023-12-07T18:55:11;62.40;;;25.48;;
29774;SDS011;16676;51.202;6.774;2023-12-07T18:59:14;63.20;;;25.23;;
29774;SDS011;16676;51.202;6.774;2023-12-07T19:03:17;54.17;;;24.60;;
29774;SDS011;16676;51.202;6.774;2023-12-07T19:07:20;49.63;;;23.08;;
29774;SDS011;16676;51.202;6.774;2023-12-07T19:11:21;50.78;;;22.45;;
29774;SDS011;16676;51.202;6.774;2023-12-07T19:15:23;44.40;;;21.17;;
29774;SDS011;16676;51.202;6.774;2023-12-07T19:19:27;55.35;;;22.52;;
29774;SDS011;16676;51.202;6.774;2023-12-07T19:23:30;45.72;;;21.45;;
29774;SDS011;16676;51.202;6.774;2023-12-07T19:27:32;49.70;;;20.45;;
29774;SDS011;16676;51.202;6.774;2023-12-07T19:31:34;44.95;;;19.85;;
29774;SDS011;16676;51.202;6.774;2023-12-07T19:35:40;40.88;;;19.10;;
29774;SDS011;16676;51.202;6.774;2023-12-07T19:39:42;38.03;;;18.20;;
29774;SDS011;16676;51.202;6.774;2023-12-07T19:43:44;39.35;;;18.02;;
29774;SDS011;16676;51.202;6.774;2023-12-07T19:47:45;35.40;;;16.83;;
29774;SDS011;16676;51.202;6.774;2023-12-07T19:51:49;37.28;;;17.25;;
29774;SDS011;16676;51.202;6.774;2023-12-07T19:55:51;37.92;;;16.25;;
29774;SDS011;16676;51.202;6.774;2023-12-07T19:59:53;30.73;;;15.10;;
29774;SDS011;16676;51.202;6.774;2023-12-07T20:03:55;33.97;;;15.13;;
29774;SDS011;16676;51.202;6.774;2023-12-07T20:07:58;30.73;;;14.70;;
29774;SDS011;16676;51.202;6.774;2023-12-07T20:12:00;28.05;;;14.50;;
29774;SDS011;16676;51.202;6.774;2023-12-07T20:16:02;29.45;;;12.80;;
29774;SDS011;16676;51.202;6.774;2023-12-07T20:20:06;32.00;;;13.60;;
29774;SDS011;16676;51.202;6.774;2023-12-07T20:24:10;27.17;;;12.98;;
29774;SDS011;16676;51.202;6.774;2023-12-07T20:28:14;26.48;;;12.35;;
29774;SDS011;16676;51.202;6.774;2023-12-07T20:32:15;27.95;;;12.60;;
29774;SDS011;16676;51.202;6.774;2023-12-07T20:36:17;30.38;;;11.02;;
29774;SDS011;16676;51.202;6.774;2023-12-07T20:40:21;22.77;;;10.63;;
29774;SDS011;16676;51.202;6.774;2023-12-07T20:44:23;28.17;;;10.45;;
29774;SDS011;16676;51.202;6.774;2023-12-07T20:48:24;21.45;;;10.40;;
29774;SDS011;16676;51.202;6.774;2023-12-07T20:52:26;24.05;;;10.05;;
29774;SDS011;16676;51.202;6.774;2023-12-07T20:56:30;19.85;;;9.48;;
29774;SDS011;16676;51.202;6.774;2023-12-07T21:00:32;76.85;;;18.20;;
29774;SDS011;16676;51.202;6.774;2023-12-07T21:04:33;67.55;;;18.45;;
29774;SDS011;16676;51.202;6.774;2023-12-07T21:08:37;65.95;;;17.27;;
29774;SDS011;16676;51.202;6.774;2023-12-07T21:12:40;63.90;;;18.73;;
29774;SDS011;16676;51.202;6.774;2023-12-07T21:16:42;169.48;;;34.40;;
29774;SDS011;16676;51.202;6.774;2023-12-07T21:20:44;207.90;;;45.25;;
29774;SDS011;16676;51.202;6.774;2023-12-07T21:24:46;182.32;;;40.30;;
29774;SDS011;16676;51.202;6.774;2023-12-07T21:28:50;188.10;;;40.45;;
29774;SDS011;16676;51.202;6.774;2023-12-07T21:32:52;165.77;;;36.53;;
29774;SDS011;16676;51.202;6.774;2023-12-07T21:36:54;150.00;;;34.83;;
29774;SDS011;16676;51.202;6.774;2023-12-07T21:40:56;171.48;;;34.28;;
29774;SDS011;16676;51.202;6.774;2023-12-07T21:45:00;151.32;;;33.95;;
29774;SDS011;16676;51.202;6.774;2023-12-07T21:49:03;143.07;;;33.10;;
29774;SDS011;16676;51.202;6.774;2023-12-07T21:53:05;139.38;;;31.17;;
29774;SDS011;16676;51.202;6.774;2023-12-07T21:57:07;121.53;;;29.08;;
29774;SDS011;16676;51.202;6.774;2023-12-07T22:01:15;129.38;;;28.55;;
29774;SDS011;16676;51.202;6.774;2023-12-07T22:05:17;119.50;;;29.08;;
29774;SDS011;16676;51.202;6.774;2023-12-07T22:09:20;116.55;;;28.63;;
29774;SDS011;16676;51.202;6.774;2023-12-07T22:13:22;125.43;;;28.20;;
29774;SDS011;16676;51.202;6.774;2023-12-07T22:17:25;119.07;;;26.60;;
29774;SDS011;16676;51.202;6.774;2023-12-07T22:21:27;102.88;;;24.83;;
29774;SDS011;16676;51.202;6.774;2023-12-07T22:25:29;97.05;;;24.90;;
29774;SDS011;16676;51.202;6.774;2023-12-07T22:29:31;90.00;;;24.48;;
29774;SDS011;16676;51.202;6.774;2023-12-07T22:33:34;97.25;;;23.23;;
29774;SDS011;16676;51.202;6.774;2023-12-07T22:37:36;90.75;;;23.20;;
29774;SDS011;16676;51.202;6.774;2023-12-07T22:41:38;81.60;;;24.58;;
29774;SDS011;16676;51.202;6.774;2023-12-07T22:45:40;87.00;;;22.33;;
29774;SDS011;16676;51.202;6.774;2023-12-07T22:49:43;88.35;;;23.70;;
29774;SDS011;16676;51.202;6.774;2023-12-07T22:53:45;74.13;;;22.40;;
29774;SDS011;16676;51.202;6.774;2023-12-07T22:57:47;72.65;;;21.67;;
29774;SDS011;16676;51.202;6.774;2023-12-07T23:01:49;79.63;;;22.15;;
29774;SDS011;16676;51.202;6.774;2023-12-07T23:05:52;85.70;;;21.10;;
29774;SDS011;16676;51.202;6.774;2023-12-07T23:09:54;76.40;;;21.15;;
29774;SDS011;16676;51.202;6.774;2023-12-07T23:13:56;73.05;;;21.48;;
29774;SDS011;16676;51.202;6.774;2023-12-07T23:17:58;61.47;;;19.80;;
29774;SDS011;16676;51.202;6.774;2023-12-07T23:22:01;73.90;;;21.13;;
29774;SDS011;16676;51.202;6.774;2023-12-07T23:26:05;66.63;;;19.98;;
29774;SDS011;16676;51.202;6.774;2023-12-07T23:30:08;65.90;;;19.15;;
29774;SDS011;16676;51.202;6.774;2023-12-07T23:34:12;62.58;;;18.83;;
29774;SDS011;16676;51.202;6.774;2023-12-07T23:38:15;72.57;;;19.00;;
29774;SDS011;16676;51.202;6.774;2023-12-07T23:42:17;54.10;;;17.27;;
29774;SDS011;16676;51.202;6.774;2023-12-07T23:46:19;57.00;;;17.83;;
29774;SDS011;16676;51.202;6.774;2023-12-07T23:50:21;56.88;;;17.88;;
29774;SDS011;16676;51.202;6.774;2023-12-07T23:54:24;54.78;;;17.73;;
29774;SDS011;16676;51.202;6.774;2023-12-07T23:58:26;53.25;;;17.73;;
